Trempealeau, WI (54661)

05:14 CDT le 28 septembre 2016 (GMT -0500)
Nodine, mn | | Change Station

Alt. 1270 ft 43.91 °N, 91.42 °W | Updated 11 seconds ago

Overcast
Couvert
48.6 ° F
Paraît 46 ° F
N
5.8
Vent Variable Vent de NNO
Gusts 9.8 mph

Aujourd'hui
Haut(e) -- | Bas -- ° F
--% Risque de précip.
Hier
Haut(e) -- | Bas -- ° F
Precip. -- pouce
Pression 29.89 pouce
Visibilité 10.0 Miles terrestres
Nuages Couvert 1300 ft
Refroidissement éolien 46 ° F
Point de rosée 39 ° F
Humidité 69%
Précipitations 0.00 pouce
Profondeur de la couche neigeuse Non disponible.
7:00 AM 6:51 PM
Lune descendante, 6% visible
METAR KLSE 280953Z AUTO 32011KT 10SM OVC013 12/09 A2989 RMK AO2 SLP120 T01170094
Pression 29.89 pouce
Visibilité 10.0 Miles terrestres
Nuages Couvert 1300 ft
Refroidissement éolien 46 ° F
Point de rosée 39 ° F
Humidité 69%
Précipitations 0.00 pouce
Profondeur de la couche neigeuse Non disponible.
7:00 AM 6:51 PM
Lune descendante, 6% visible
METAR KLSE 280953Z AUTO 32011KT 10SM OVC013 12/09 A2989 RMK AO2 SLP120 T01170094

10-Day Weather Forecast

Almanac

Astronomie

Sep. 28, 2016 Lever Coucher
Temps réel
Crépuscule civil
Crépuscule nautique
Crépuscule astronomique
Lune
Durée de lumière visible
Longueur du jour
Tomorrow will be .
, % of the Moon is Illuminated

Extrêmes aujourd'hui

State Highs State Lows

Community

WunderPhotos

Upload Photos

1,942,216 Photos téléchargées !

WunderBlog® & News

Nearby

Qualité de l'air

  Qualité de l'air Indice de la qualité de l'air Polluant
Not available.

Épaisseur de neige

Station Depth Altitude

Activité sismique

Ville Distance Mag. Time & Date
Minimum magnitude displayed is 2.5.

Températures des eaux côtières

Lieu Température

Stations

Stations météo à proximité

Emplacement de la station Température Refroidissement éolien Point de rosée Humidité Vent Precip. Alt. Mise à jour Type
                   

Watches & Warnings

There are currently no watches in effect.